ADDS TAF Board (Experimental) INFO Settings
IDs: Format: Expanded Condensed

KIAH - Houston/Bush Intl, TX, US

Issued at 0900 UTC 01 Jul 2016
Updated at 1135 UTC 01 Jul 2016
Time1053Z 01/12Z 01/13Z 01/14Z 01/15Z 01/16Z 01/17Z 01/18Z 01/19Z 01/20Z 01/21Z 01/22Z 01/23Z 02/00Z
Type OBS PRVL PRVL PRVL PRVL PRVL PRVL PRVL PRVL PRVL PRVL PRVL PRVL PRVL
VIS 8 >6 >6 >6 >6 >6 >6 >6 >6 >6 >6 >6 >6 >6
CIG -- -- -- -- -- -- -- -- -- -- -- -- -- --
Cover FEW SCT SCT SCT SCT SCT SCT SCT SCT SCT SCT SCT SCT SCT
FltCat VFR VFR VFR VFR VFR VFR VFR VFR VFR VFR VFR VFR VFR VFR
WX -- -- -- -- -- -- -- -- -- -- -- -- -- --
WDir 350 VRB VRB VRB VRB 120 120 120 120 120 120 120 120 120
WSpd 3 3 3 3 3 7 7 7 7 7 7 7 7 7
WGst -- -- -- -- -- -- -- -- -- -- -- -- -- --
R08/26
XWnd 3 VRB VRB VRB VRB -4 -4 -4 -4 -4 -4 -4 -4 -4
HWnd -1 VRB VRB VRB VRB 6 6 6 6 6 6 6 6 6
R09/27
XWnd 3 VRB VRB VRB VRB -4 -4 -4 -4 -4 -4 -4 -4 -4
HWnd -1 VRB VRB VRB VRB 6 6 6 6 6 6 6 6 6
R15/33
XWnd 1 VRB VRB VRB VRB 4 4 4 4 4 4 4 4 4
HWnd -3 VRB VRB VRB VRB 6 6 6 6 6 6 6 6 6

Raw TAF
KIAH 010900Z 0109/0212 VRB03KT P6SM SCT250
  FM011600 12007KT P6SM SCT050
  FM020100 VRB03KT P6SM FEW050


Raw METAR
KIAH 011053Z 35003KT 8SM FEW250 25/24 A2998 RMK AO2 SLP152 T02500239
KIAH 010953Z 00000KT 10SM FEW250 25/23 A2997 RMK AO2 SLP149 T02500233
KIAH 010853Z 00000KT 10SM SCT250 24/23 A2996 RMK AO2 SLP145 T02440233 53002

METAR Board
Radar Display
Forecast Discussion

TAF Board Legend

Potential Impact
Threat None Slight Moderate High
Visibility (sm) ≥5.1 5.1>X≥3 3>X≥1 <1
Ceiling (100 ft) ≥30.1 30.1>X≥10 10>X≥5 <5
Wind Speed (kt) <10 10≤X<20 20≤X<30 ≥30
Wind Gust (kt) <15 15≤X<25 25≤X<35 ≥35
Weather No Wx Reported VCTS,-TS,-FZRA,SN TS,FZRA +TS,+FZRA,+SN